AYPY/POM METAR and TAF weather

Enter ICAO airport designator
Station Type Date Time Source
AYPY METAR 2020/03/28 20:00 UTC NOAA

AYPY 282000Z 33006KT 9999 BCFG BKN090 24/24 Q1008


Station Type Date Time Source
AYPY Decoded METAR 2020/03/28 20:00 UTC NOAA

Moresby, Papua New Guinea (AYPY) 09-26S 147-13E 49M
Mar 28, 2020 - 04:00 PM EDT / 2020.03.28 2000 UTC
Wind: from the NNW (330 degrees) at 7 MPH (6 KT):0
Visibility: greater than 7 mile(s):0
Sky conditions: mostly cloudy
Weather: patches of fog
Temperature: 75 F (24 C)
Dew Point: 75 F (24 C)
Relative Humidity: 100%
Pressure (altimeter): 29.77 in. Hg (1008 hPa)
ob: AYPY 282000Z 33006KT 9999 BCFG BKN090 24/24 Q1008
cycle: 20

Station Type Date Time Source
AYPY TAF 2020/03/28 18:51 UTC NOAA

TAF TAF AYPY 281601Z 2818/2918 00000KT 9999 SCT040 BKN140 PROB30 2819/2821 0600 FG
FM290200 35010KT 9999 -SHRA SCT018 SCT030 BKN120 INTER 2902/2910 4000 SHRA BKN008 T 25 26 28 31 Q 1006 1007 1009 1008 AREA QNH FOR AYPY FIR VALID 2818/2918 1007 HPA

Example: see airport list